createdAt,value
2019-03-01T00:01:26.110Z,100686.48
2019-03-01T00:04:34.556Z,100682.85
2019-03-01T00:07:41.736Z,100681.03
2019-03-01T00:10:50.211Z,100685.16
2019-03-01T00:13:58.719Z,100688.80
2019-03-01T00:17:05.866Z,100689.77
2019-03-01T00:20:14.695Z,100695.23
2019-03-01T00:23:23.112Z,100693.84
2019-03-01T00:26:31.567Z,100691.64
2019-03-01T00:29:38.706Z,100692.12
2019-03-01T00:32:45.892Z,100690.00
2019-03-01T00:35:53.101Z,100692.03
2019-03-01T00:39:00.267Z,100683.09
2019-03-01T00:42:07.466Z,100681.97
2019-03-01T00:44:55.322Z,100678.48
2019-03-01T00:49:57.642Z,100669.55
2019-03-01T00:52:26.131Z,100664.09
2019-03-01T00:54:54.580Z,100666.05
2019-03-01T00:57:23.426Z,100666.89
2019-03-01T00:59:52.018Z,100666.54
2019-03-01T01:02:20.436Z,100665.46
2019-03-01T01:04:48.986Z,100670.42
2019-03-01T01:07:17.525Z,100670.42
2019-03-01T01:09:45.978Z,100657.84
2019-03-01T01:12:14.603Z,100658.17
2019-03-01T01:14:43.092Z,100658.67
2019-03-01T01:17:11.699Z,100655.19
2019-03-01T01:19:40.212Z,100656.56
2019-03-01T01:22:08.718Z,100657.55
2019-03-01T01:24:37.274Z,100662.85
2019-03-01T01:27:06.126Z,100655.38
2019-03-01T01:29:34.531Z,100646.29
2019-03-01T01:32:03.070Z,100645.96
2019-03-01T01:34:31.684Z,100643.80
2019-03-01T01:37:00.669Z,100642.66
2019-03-01T01:39:29.158Z,100641.83
2019-03-01T01:41:57.629Z,100628.71
2019-03-01T01:44:26.527Z,100622.42
2019-03-01T01:46:55.183Z,100610.64
2019-03-01T01:49:23.544Z,100598.85
2019-03-01T01:51:52.181Z,100590.55
2019-03-01T01:54:20.552Z,100580.92
2019-03-01T01:56:49.447Z,100581.95
2019-03-01T01:59:17.985Z,100595.17
2019-03-01T02:01:46.432Z,100594.19
2019-03-01T02:04:14.922Z,100588.24
2019-03-01T02:06:43.353Z,100587.94
2019-03-01T02:09:31.089Z,100574.67
2019-03-01T02:12:00.022Z,100578.99
2019-03-01T02:14:28.791Z,100577.62
2019-03-01T02:16:57.291Z,100576.64
2019-03-01T02:19:26.173Z,100589.91
2019-03-01T02:21:54.728Z,100584.94
2019-03-01T02:24:23.180Z,100577.02
2019-03-01T02:30:00.172Z,100562.55
2019-03-01T02:32:50.102Z,100566.03
2019-03-01T02:35:58.546Z,100572.28
2019-03-01T02:38:27.020Z,100568.98
2019-03-01T02:40:55.492Z,100567.16
2019-03-01T02:43:23.871Z,100571.88
2019-03-01T02:45:52.421Z,100574.42
2019-03-01T02:48:21.159Z,100573.83
2019-03-01T02:50:49.702Z,100571.59
2019-03-01T02:53:18.165Z,100571.94
2019-03-01T02:55:46.635Z,100569.63
2019-03-01T02:58:15.509Z,100561.05
2019-03-01T03:00:44.031Z,100568.31
2019-03-01T03:03:12.599Z,100559.73
2019-03-01T03:06:00.485Z,100561.77
2019-03-01T03:08:28.994Z,100555.67
2019-03-01T03:10:57.474Z,100558.83
2019-03-01T03:13:25.994Z,100560.84
2019-03-01T03:18:43.489Z,100547.62
2019-03-01T03:21:12.389Z,100551.62
2019-03-01T03:23:40.898Z,100544.38
2019-03-01T03:28:58.469Z,100554.70
2019-03-01T03:31:27.309Z,100554.39
2019-03-01T03:33:55.990Z,100546.10
2019-03-01T03:36:24.401Z,100547.92
2019-03-01T03:38:52.981Z,100547.42
2019-03-01T03:41:21.519Z,100551.06
2019-03-01T03:43:49.920Z,100549.63
2019-03-01T03:46:18.308Z,100544.32
2019-03-01T03:48:46.678Z,100544.16
2019-03-01T03:51:15.272Z,100537.00
2019-03-01T03:53:44.061Z,100551.14
2019-03-01T03:56:12.543Z,100544.16
2019-03-01T03:58:41.345Z,100543.14
2019-03-01T04:01:09.935Z,100541.17
2019-03-01T04:03:38.357Z,100538.52
2019-03-01T04:06:07.018Z,100533.86
2019-03-01T04:08:35.537Z,100529.23
2019-03-01T04:11:04.083Z,100522.27
2019-03-01T04:13:32.557Z,100514.12
2019-03-01T04:16:01.245Z,100512.98
2019-03-01T04:18:29.828Z,100516.31
2019-03-01T04:24:06.485Z,100512.33
2019-03-01T04:26:34.902Z,100516.80
2019-03-01T04:29:03.502Z,100504.00
2019-03-01T04:31:32.124Z,100502.30
2019-03-01T04:34:00.591Z,100493.52
2019-03-01T04:36:29.265Z,100501.31
2019-03-01T04:38:57.813Z,100491.69
2019-03-01T04:41:26.703Z,100489.64
2019-03-01T04:43:55.259Z,100485.02
2019-03-01T04:46:23.780Z,100474.08
2019-03-01T04:48:52.246Z,100471.77
2019-03-01T04:51:20.749Z,100463.47
2019-03-01T04:53:49.257Z,100459.80
2019-03-01T04:56:17.772Z,100468.39
2019-03-01T04:58:46.694Z,100460.48
2019-03-01T05:01:15.250Z,100456.38
2019-03-01T05:03:43.622Z,100452.80
2019-03-01T05:06:12.361Z,100445.89
2019-03-01T05:08:41.237Z,100453.05
2019-03-01T05:11:09.867Z,100451.97
2019-03-01T05:13:38.414Z,100452.50
2019-03-01T05:16:07.009Z,100447.36
2019-03-01T05:18:35.539Z,100450.64
2019-03-01T05:21:04.110Z,100445.00
2019-03-01T05:23:32.637Z,100444.01
2019-03-01T05:26:01.534Z,100446.31
2019-03-01T05:28:29.944Z,100447.50
2019-03-01T05:30:58.427Z,100454.07
2019-03-01T05:33:26.887Z,100454.22
2019-03-01T05:35:55.379Z,100457.61
2019-03-01T05:38:23.867Z,100464.88
2019-03-01T05:40:52.283Z,100463.89
2019-03-01T05:43:20.790Z,100465.89
2019-03-01T05:45:49.599Z,100464.88
2019-03-01T05:48:18.145Z,100460.11
2019-03-01T05:50:46.767Z,100464.23
2019-03-01T05:53:15.342Z,100461.59
2019-03-01T05:55:43.882Z,100458.00
2019-03-01T05:58:32.389Z,100457.90
2019-03-01T06:01:40.880Z,100461.77
2019-03-01T06:04:49.421Z,100457.48
2019-03-01T06:07:57.910Z,100460.52
2019-03-01T06:11:06.403Z,100461.05
2019-03-01T06:14:13.620Z,100457.71
2019-03-01T06:17:22.071Z,100464.71
2019-03-01T06:20:11.477Z,100466.87
2019-03-01T06:23:18.589Z,100465.54
2019-03-01T06:26:27.058Z,100461.22
2019-03-01T06:29:35.813Z,100458.91
2019-03-01T06:32:43.245Z,100452.95
2019-03-01T06:35:51.786Z,100456.28
2019-03-01T06:39:18.311Z,100460.11
2019-03-01T06:42:26.811Z,100466.40
2019-03-01T06:45:33.979Z,100473.21
2019-03-01T06:48:02.484Z,100478.52
2019-03-01T06:50:50.244Z,100478.21
2019-03-01T06:53:18.736Z,100486.17
2019-03-01T06:55:47.271Z,100486.81
2019-03-01T06:58:55.763Z,100487.65
2019-03-01T07:06:52.937Z,100489.16
2019-03-01T07:09:21.429Z,100495.30
2019-03-01T07:12:10.926Z,100494.47
2019-03-01T07:14:39.585Z,100488.51
2019-03-01T07:17:08.424Z,100486.00
2019-03-01T07:19:37.399Z,100495.81
2019-03-01T07:25:37.473Z,100489.18
2019-03-01T07:28:05.864Z,100494.15
2019-03-01T07:30:34.718Z,100501.77
2019-03-01T07:33:03.428Z,100500.97
2019-03-01T07:35:32.659Z,100498.81
2019-03-01T07:38:01.422Z,100502.78
2019-03-01T07:40:29.957Z,100498.81
2019-03-01T07:42:58.620Z,100494.98
2019-03-01T07:45:27.364Z,100496.48
2019-03-01T07:47:55.873Z,100498.16
2019-03-01T07:50:44.268Z,100491.67
2019-03-01T07:53:32.426Z,100496.00
2019-03-01T07:56:04.110Z,100494.82
2019-03-01T07:58:31.293Z,100501.64
2019-03-01T08:00:59.947Z,100493.67
2019-03-01T08:03:28.461Z,100495.50
2019-03-01T08:05:56.988Z,100485.72
2019-03-01T08:08:25.719Z,100489.54
2019-03-01T08:10:56.334Z,100490.18
2019-03-01T08:13:26.657Z,100487.03
2019-03-01T08:15:55.093Z,100496.50
2019-03-01T08:18:23.560Z,100498.51
2019-03-01T08:20:51.965Z,100500.14
2019-03-01T08:23:20.437Z,100497.18
2019-03-01T08:25:48.994Z,100495.36
2019-03-01T08:28:18.517Z,100497.83
2019-03-01T08:30:48.064Z,100486.89
2019-03-01T08:33:16.649Z,100486.58
2019-03-01T08:35:45.209Z,100489.88
2019-03-01T08:38:14.006Z,100491.20
2019-03-01T08:40:42.876Z,100491.54
2019-03-01T08:43:13.011Z,100482.27
2019-03-01T08:45:41.813Z,100482.77
2019-03-01T08:48:10.455Z,100484.27
2019-03-01T08:50:39.229Z,100488.23
2019-03-01T08:53:07.877Z,100486.91
2019-03-01T08:55:38.851Z,100494.87
2019-03-01T08:58:07.170Z,100499.02
2019-03-01T09:03:44.991Z,100497.38
2019-03-01T09:06:13.515Z,100507.52
2019-03-01T09:08:42.947Z,100501.53
2019-03-01T09:11:12.470Z,100508.48
2019-03-01T09:13:40.921Z,100505.83
2019-03-01T09:16:09.447Z,100511.30
2019-03-01T09:18:37.987Z,100514.64
2019-03-01T09:21:12.347Z,100522.77
2019-03-01T09:23:36.771Z,100521.75
2019-03-01T09:26:05.755Z,100523.42
2019-03-01T09:28:38.619Z,100525.39
2019-03-01T09:31:04.656Z,100514.13
2019-03-01T09:33:33.219Z,100507.16
2019-03-01T09:38:50.868Z,100506.81
2019-03-01T09:41:19.454Z,100512.48
2019-03-01T09:43:48.097Z,100518.11
2019-03-01T09:46:16.621Z,100517.79
2019-03-01T09:48:45.612Z,100525.39
2019-03-01T09:51:15.973Z,100523.76
2019-03-01T09:53:45.784Z,100530.06
2019-03-01T09:56:14.250Z,100521.76
2019-03-01T09:58:43.169Z,100526.08
2019-03-01T10:01:51.612Z,100521.41
2019-03-01T10:04:20.376Z,100518.10
2019-03-01T10:06:48.855Z,100526.40
2019-03-01T10:09:17.332Z,100516.13
2019-03-01T10:11:45.796Z,100519.27
2019-03-01T10:14:14.327Z,100523.09
2019-03-01T10:16:43.096Z,100523.44
2019-03-01T10:19:11.985Z,100517.30
2019-03-01T10:21:40.517Z,100510.80
2019-03-01T10:24:09.113Z,100516.14
2019-03-01T10:26:37.961Z,100523.75
2019-03-01T10:29:06.480Z,100529.06
2019-03-01T10:31:35.056Z,100522.42
2019-03-01T10:34:04.214Z,100529.42
2019-03-01T10:36:32.875Z,100531.90
2019-03-01T10:39:01.406Z,100529.25
2019-03-01T10:41:29.869Z,100539.22
2019-03-01T10:43:58.536Z,100542.70
2019-03-01T10:46:27.155Z,100540.70
2019-03-01T10:48:55.825Z,100546.52
2019-03-01T10:51:24.381Z,100551.80
2019-03-01T10:53:52.951Z,100552.65
2019-03-01T10:56:21.779Z,100554.63
2019-03-01T10:58:50.183Z,100561.25
2019-03-01T11:01:18.689Z,100553.97
2019-03-01T11:03:47.260Z,100559.59
2019-03-01T11:06:15.818Z,100564.23
2019-03-01T11:08:44.371Z,100563.09
2019-03-01T11:11:12.926Z,100570.22
2019-03-01T11:13:41.448Z,100562.23
2019-03-01T11:16:09.991Z,100575.84
2019-03-01T11:18:38.839Z,100579.00
2019-03-01T11:21:07.346Z,100580.14
2019-03-01T11:23:56.507Z,100581.81
2019-03-01T11:26:25.378Z,100577.83
2019-03-01T11:28:54.268Z,100576.47
2019-03-01T11:31:22.775Z,100575.83
2019-03-01T11:33:51.251Z,100577.16
2019-03-01T11:36:20.225Z,100580.12
2019-03-01T11:38:48.872Z,100575.14
2019-03-01T11:41:17.503Z,100572.00
2019-03-01T11:43:45.977Z,100578.81
2019-03-01T11:46:14.924Z,100577.33
2019-03-01T11:48:43.554Z,100576.16
2019-03-01T11:51:12.017Z,100574.85
2019-03-01T11:53:40.783Z,100582.48
2019-03-01T11:56:09.314Z,100588.99
2019-03-01T11:59:17.840Z,100590.81
2019-03-01T12:01:46.400Z,100590.78
2019-03-01T12:04:14.880Z,100592.45
2019-03-01T12:06:43.496Z,100590.77
2019-03-01T12:09:11.981Z,100591.41
2019-03-01T12:11:40.500Z,100590.73
2019-03-01T12:14:09.162Z,100595.55
2019-03-01T12:16:38.034Z,100592.06
2019-03-01T12:19:06.493Z,100585.92
2019-03-01T12:21:35.052Z,100588.08
2019-03-01T12:24:03.815Z,100589.41
2019-03-01T12:26:32.395Z,100593.39
2019-03-01T12:29:01.018Z,100598.20
2019-03-01T12:31:29.848Z,100597.53
2019-03-01T12:33:58.330Z,100601.02
2019-03-01T12:36:26.797Z,100605.48
2019-03-01T12:38:55.362Z,100602.49
2019-03-01T12:41:23.982Z,100604.99
2019-03-01T12:43:52.526Z,100604.84
2019-03-01T12:46:21.004Z,100603.82
2019-03-01T12:48:49.561Z,100601.66
2019-03-01T12:51:18.107Z,100597.68
2019-03-01T12:53:46.907Z,100607.65
2019-03-01T12:56:15.297Z,100607.98
2019-03-01T12:58:43.883Z,100619.59
2019-03-01T13:01:12.762Z,100628.55
2019-03-01T13:03:43.780Z,100636.84
2019-03-01T13:06:11.579Z,100634.16
2019-03-01T13:08:40.031Z,100644.57
2019-03-01T13:11:08.610Z,100645.72
2019-03-01T13:13:38.380Z,100650.42
2019-03-01T13:16:07.344Z,100652.20
2019-03-01T13:21:23.774Z,100662.76
2019-03-01T13:23:52.282Z,100669.19
2019-03-01T13:26:20.825Z,100660.06
2019-03-01T13:28:49.457Z,100669.33
2019-03-01T13:31:18.045Z,100674.79
2019-03-01T13:33:47.012Z,100676.75
2019-03-01T13:36:15.482Z,100687.35
2019-03-01T13:38:44.108Z,100684.16
2019-03-01T13:41:12.646Z,100687.78
2019-03-01T13:43:41.036Z,100685.42
2019-03-01T13:46:09.610Z,100680.33
2019-03-01T13:48:38.148Z,100684.94
2019-03-01T13:51:07.273Z,100683.97
2019-03-01T13:53:35.924Z,100686.96
2019-03-01T13:56:04.529Z,100697.62
2019-03-01T13:58:33.053Z,100693.64
2019-03-01T14:01:02.254Z,100694.63
2019-03-01T14:03:30.791Z,100699.02
2019-03-01T14:05:59.366Z,100700.98
2019-03-01T14:08:27.916Z,100697.89
2019-03-01T14:10:56.628Z,100699.08
2019-03-01T14:13:25.187Z,100702.46
2019-03-01T14:16:13.712Z,100706.30
2019-03-01T14:18:42.172Z,100695.94
2019-03-01T14:21:10.788Z,100697.64
2019-03-01T14:23:39.435Z,100700.94
2019-03-01T14:26:08.515Z,100697.34
2019-03-01T14:28:41.226Z,100701.20
2019-03-01T14:31:09.005Z,100716.00
2019-03-01T14:33:37.682Z,100711.86
2019-03-01T14:36:06.278Z,100709.36
2019-03-01T14:38:35.083Z,100711.98
2019-03-01T14:41:03.973Z,100711.59
2019-03-01T14:43:32.548Z,100710.27
2019-03-01T14:46:01.455Z,100719.27
2019-03-01T14:48:30.242Z,100718.09
2019-03-01T14:50:59.739Z,100718.39
2019-03-01T14:53:31.149Z,100725.52
2019-03-01T14:56:21.431Z,100720.46
2019-03-01T14:59:35.049Z,100724.28
2019-03-01T15:02:40.682Z,100726.75
2019-03-01T15:05:17.135Z,100725.08
2019-03-01T15:07:39.039Z,100722.43
2019-03-01T15:10:47.536Z,100720.99
2019-03-01T15:13:15.957Z,100722.81
2019-03-01T15:15:44.477Z,100722.66
2019-03-01T15:18:12.940Z,100723.47
2019-03-01T15:20:41.453Z,100727.59
2019-03-01T15:23:10.026Z,100726.30
2019-03-01T15:25:38.486Z,100728.91
2019-03-01T15:28:07.079Z,100733.72
2019-03-01T15:30:35.697Z,100734.90
2019-03-01T15:33:04.205Z,100736.72
2019-03-01T15:35:32.689Z,100745.28
2019-03-01T15:38:23.925Z,100742.28
2019-03-01T15:41:30.729Z,100747.58
2019-03-01T15:43:59.204Z,100750.92
2019-03-01T15:46:27.608Z,100751.63
2019-03-01T15:48:56.148Z,100760.06
2019-03-01T15:51:24.641Z,100765.67
2019-03-01T15:53:53.182Z,100765.80
2019-03-01T15:56:22.167Z,100765.41
2019-03-01T15:58:52.183Z,100771.12
2019-03-01T16:01:20.814Z,100774.06
2019-03-01T16:03:49.410Z,100776.21
2019-03-01T16:08:53.740Z,100788.59
2019-03-01T16:14:11.619Z,100791.09
2019-03-01T16:16:41.054Z,100792.92
2019-03-01T16:19:11.157Z,100798.22
2019-03-01T16:21:43.062Z,100797.88
2019-03-01T16:24:10.237Z,100796.53
2019-03-01T16:26:38.714Z,100799.77
2019-03-01T16:29:08.031Z,100803.33
2019-03-01T16:31:37.757Z,100803.38
2019-03-01T16:34:06.299Z,100808.20
2019-03-01T16:39:13.637Z,100817.05
2019-03-01T16:41:43.662Z,100817.33
2019-03-01T16:44:12.824Z,100829.14
2019-03-01T16:46:41.756Z,100830.38
2019-03-01T16:49:10.646Z,100837.48
2019-03-01T16:51:39.116Z,100836.03
2019-03-01T16:54:07.525Z,100836.10
2019-03-01T16:56:38.461Z,100842.12
2019-03-01T16:59:07.280Z,100847.74
2019-03-01T17:01:36.450Z,100851.87
2019-03-01T17:04:04.967Z,100862.99
2019-03-01T17:06:33.533Z,100864.64
2019-03-01T17:09:02.071Z,100858.84
2019-03-01T17:11:30.555Z,100867.30
2019-03-01T17:13:59.577Z,100866.70
2019-03-01T17:16:29.584Z,100874.61
2019-03-01T17:18:58.377Z,100881.39
2019-03-01T17:21:26.953Z,100880.44
2019-03-01T17:23:55.493Z,100887.19
2019-03-01T17:26:26.331Z,100886.89
2019-03-01T17:28:54.409Z,100885.70
2019-03-01T17:31:23.169Z,100890.20
2019-03-01T17:33:53.300Z,100890.95
2019-03-01T17:36:22.260Z,100882.58
2019-03-01T17:38:50.900Z,100885.79
2019-03-01T17:41:19.368Z,100895.55
2019-03-01T17:43:47.831Z,100896.08
2019-03-01T17:46:16.431Z,100905.19
2019-03-01T17:48:44.843Z,100903.41
2019-03-01T17:51:13.285Z,100906.43
2019-03-01T17:53:43.013Z,100911.22
2019-03-01T17:56:12.388Z,100905.47
2019-03-01T17:58:41.162Z,100911.47
2019-03-01T18:01:09.683Z,100922.20
2019-03-01T18:03:38.305Z,100918.69
2019-03-01T18:06:06.850Z,100928.31
2019-03-01T18:08:39.557Z,100930.55
2019-03-01T18:11:08.614Z,100933.16
2019-03-01T18:13:36.779Z,100941.40
2019-03-01T18:16:45.196Z,100942.37
2019-03-01T18:19:13.761Z,100946.70
2019-03-01T18:24:50.766Z,100954.47
2019-03-01T18:30:34.443Z,100958.52
2019-03-01T18:33:03.208Z,100965.09
2019-03-01T18:35:31.867Z,100969.42
2019-03-01T18:38:00.470Z,100972.70
2019-03-01T18:40:29.084Z,100981.90
2019-03-01T18:42:57.899Z,100984.55
2019-03-01T18:46:07.044Z,100987.20
2019-03-01T18:49:16.707Z,100992.67
2019-03-01T18:51:46.508Z,100998.45
2019-03-01T18:54:15.921Z,101008.48
2019-03-01T18:56:44.580Z,101009.28
2019-03-01T18:59:13.174Z,101010.88
2019-03-01T19:01:42.872Z,101018.83
2019-03-01T19:04:13.058Z,101022.67
2019-03-01T19:06:43.077Z,101029.24
2019-03-01T19:09:12.678Z,101028.54
2019-03-01T19:11:42.153Z,101027.70
2019-03-01T19:14:10.831Z,101035.59
2019-03-01T19:16:39.383Z,101038.73
2019-03-01T19:19:07.880Z,101044.05
2019-03-01T19:24:51.189Z,101044.30
2019-03-01T19:27:40.221Z,101045.45
2019-03-01T19:33:46.159Z,101054.31
2019-03-01T19:39:02.491Z,101051.52
2019-03-01T19:41:31.049Z,101051.09
2019-03-01T19:43:59.996Z,101052.23
2019-03-01T19:46:51.436Z,101052.90
2019-03-01T19:49:19.777Z,101050.25
2019-03-01T19:51:48.531Z,101055.70
2019-03-01T19:54:17.148Z,101053.55
2019-03-01T19:56:45.688Z,101057.87
2019-03-01T19:59:21.447Z,101058.28
2019-03-01T20:01:52.589Z,101062.96
2019-03-01T20:04:21.111Z,101058.64
2019-03-01T20:09:46.963Z,101066.63
2019-03-01T20:12:15.603Z,101064.64
2019-03-01T20:14:44.271Z,101067.20
2019-03-01T20:17:13.018Z,101076.05
2019-03-01T20:19:41.889Z,101073.89
2019-03-01T20:22:10.664Z,101084.97
2019-03-01T20:28:27.305Z,101084.61
2019-03-01T20:30:55.852Z,101085.94
2019-03-01T20:33:27.128Z,101087.13
2019-03-01T20:41:25.440Z,101091.64
2019-03-01T20:43:54.015Z,101093.75
2019-03-01T20:46:24.412Z,101094.72
2019-03-01T20:48:52.932Z,101094.72
2019-03-01T20:51:40.656Z,101098.20
2019-03-01T20:54:09.517Z,101098.75
2019-03-01T20:56:37.966Z,101096.05
2019-03-01T20:59:07.022Z,101103.14
2019-03-01T21:01:37.354Z,101107.47
2019-03-01T21:04:05.990Z,101107.83
2019-03-01T21:06:37.429Z,101104.34
2019-03-01T21:09:44.839Z,101106.50
2019-03-01T21:12:13.494Z,101106.63
2019-03-01T21:14:42.102Z,101111.16
2019-03-01T21:17:10.669Z,101108.64
2019-03-01T21:19:40.850Z,101110.31
2019-03-01T21:22:09.580Z,101112.55
2019-03-01T21:24:38.353Z,101114.64
2019-03-01T21:27:06.979Z,101112.67
2019-03-01T21:29:35.722Z,101107.73
2019-03-01T21:32:04.477Z,101111.70
2019-03-01T21:34:34.849Z,101110.73
2019-03-01T21:40:22.459Z,101112.48
2019-03-01T21:45:28.433Z,101121.39
2019-03-01T21:50:46.187Z,101121.87
2019-03-01T21:53:14.903Z,101120.20
2019-03-01T21:55:43.582Z,101119.58
2019-03-01T22:04:14.976Z,101127.43
2019-03-01T22:06:43.541Z,101129.75
2019-03-01T22:09:52.197Z,101126.05
2019-03-01T22:12:24.643Z,101129.66
2019-03-01T22:14:52.839Z,101126.88
2019-03-01T22:17:21.483Z,101135.18
2019-03-01T22:19:52.184Z,101128.69
2019-03-01T22:22:20.678Z,101131.20
2019-03-01T22:24:49.244Z,101134.70
2019-03-01T22:30:45.292Z,101133.27
2019-03-01T22:33:13.840Z,101133.41
2019-03-01T22:35:43.520Z,101132.44
2019-03-01T22:38:13.266Z,101131.95
2019-03-01T22:40:41.893Z,101128.47
2019-03-01T22:43:10.411Z,101125.63
2019-03-01T22:45:38.984Z,101127.08
2019-03-01T22:48:08.406Z,101127.56
2019-03-01T22:50:39.451Z,101123.11
2019-03-01T22:53:08.218Z,101127.82
2019-03-01T22:55:37.606Z,101130.47
2019-03-01T22:58:07.150Z,101132.92
2019-03-01T23:01:16.034Z,101136.30
2019-03-01T23:03:45.919Z,101135.95
2019-03-01T23:06:14.896Z,101142.20
2019-03-01T23:08:45.079Z,101140.88
2019-03-01T23:11:53.545Z,101145.50
2019-03-01T23:14:22.241Z,101146.91
2019-03-01T23:16:54.353Z,101151.84
2019-03-01T23:19:21.040Z,101142.58
2019-03-01T23:21:49.587Z,101138.48
2019-03-01T23:24:18.175Z,101144.97
2019-03-01T23:26:46.794Z,101133.06
2019-03-01T23:29:18.435Z,101135.97
2019-03-01T23:34:21.209Z,101139.69
2019-03-01T23:41:59.995Z,101145.88
2019-03-01T23:44:28.615Z,101147.05
2019-03-01T23:46:59.502Z,101147.95
2019-03-01T23:49:27.401Z,101152.59
2019-03-01T23:51:56.065Z,101152.59
2019-03-01T23:54:25.035Z,101154.94
2019-03-01T23:56:53.638Z,101146.77
2019-03-01T23:59:23.778Z,101142.45
